Time;durP1;ratioP1;P1;durP2;ratioP2;P2;SDS_P1;SDS_P2;PMS_P1;PMS_P2;Temp;Humidity;BMP_temperature;BMP_pressure;BME280_temperature;BME280_humidity;BME280_pressure;Samples;Min_cycle;Max_cycle;Signal;HPM_P1;HPM_P2
2022/06/03 00:02:06;;;;;;;6.95;4.10;;;;;;;26.40;47.41;101262.59;5086232;28;20413;-60
2022/06/03 00:05:04;;;;;;;4.93;4.32;;;;;;;26.36;47.73;101267.72;5082230;28;20420;-60
2022/06/03 00:07:44;;;;;;;6.65;4.65;;;;;;;26.15;48.36;101272.22;5080703;28;20408;-60
2022/06/03 00:10:37;;;;;;;5.23;4.00;;;;;;;25.99;48.72;101275.91;5091853;28;20829;-60
2022/06/03 00:13:18;;;;;;;6.13;4.32;;;;;;;26.06;48.60;101273.78;5073736;28;20480;-60
2022/06/03 00:16:03;;;;;;;4.88;4.13;;;;;;;25.93;49.08;101281.31;5081961;28;20413;-60
2022/06/03 00:19:05;;;;;;;6.30;4.30;;;;;;;25.99;48.84;101286.78;5085909;28;20411;-60
2022/06/03 00:22:07;;;;;;;6.43;4.32;;;;;;;26.02;49.03;101283.53;5071518;28;20502;-60
2022/06/03 00:24:56;;;;;;;7.53;4.30;;;;;;;25.96;48.98;101287.28;5083739;28;20497;-60
2022/06/03 00:27:37;;;;;;;6.95;4.30;;;;;;;25.91;48.94;101280.72;5084235;28;20493;-60
2022/06/03 00:30:17;;;;;;;6.47;4.50;;;;;;;25.89;49.27;101282.03;5071497;28;20499;-60
2022/06/03 00:33:30;;;;;;;9.52;4.40;;;;;;;25.85;49.44;101275.50;5081294;28;20405;-60
2022/06/03 00:36:05;;;;;;;5.65;4.28;;;;;;;25.74;49.63;101285.44;5079723;28;20416;-60
2022/06/03 00:38:55;;;;;;;6.13;4.20;;;;;;;25.76;49.72;101286.00;5076520;28;20445;-60
2022/06/03 00:41:41;;;;;;;6.25;4.63;;;;;;;25.76;49.49;101288.72;5071242;28;20934;-60
2022/06/03 00:44:34;;;;;;;5.60;4.30;;;;;;;25.70;49.59;101287.03;5070892;28;20481;-60
2022/06/03 00:49:18;;;;;;;6.85;4.63;;;;;;;25.72;49.59;101287.59;5103486;27;20475;-59
2022/06/03 00:52:35;;;;;;;6.93;4.53;;;;;;;25.73;49.59;101275.66;5086745;28;20415;-59
2022/06/03 00:55:17;;;;;;;6.90;4.60;;;;;;;25.69;49.71;101278.06;5037178;28;20500;-59
2022/06/03 00:58:10;;;;;;;7.53;4.72;;;;;;;25.67;49.71;101277.50;5086581;28;20418;-59
2022/06/03 01:00:43;;;;;;;7.30;4.80;;;;;;;25.70;49.54;101268.84;5086323;28;20417;-58
2022/06/03 01:03:15;;;;;;;7.85;4.65;;;;;;;25.60;49.94;101282.31;5086768;28;20414;-59
2022/06/03 01:06:10;;;;;;;6.38;4.55;;;;;;;25.57;49.85;101282.84;5086475;28;20406;-58
2022/06/03 01:08:49;;;;;;;6.65;5.05;;;;;;;25.57;50.18;101280.16;5086269;28;20799;-59
2022/06/03 01:11:24;;;;;;;6.30;5.30;;;;;;;25.59;49.93;101282.56;5086227;28;20410;-58
2022/06/03 01:14:06;;;;;;;5.55;4.72;;;;;;;25.54;49.80;101281.47;5086323;28;20818;-59
2022/06/03 01:16:52;;;;;;;5.35;4.68;;;;;;;25.56;50.00;101284.72;5086010;28;20410;-58
2022/06/03 01:19:49;;;;;;;9.03;5.10;;;;;;;25.59;50.00;101288.00;5086268;28;20484;-59
2022/06/03 01:22:36;;;;;;;6.80;5.10;;;;;;;25.58;50.01;101286.38;5063089;28;20418;-58
2022/06/03 01:25:33;;;;;;;7.40;4.90;;;;;;;25.49;50.17;101289.53;5085841;28;20947;-58
2022/06/03 01:29:38;;;;;;;8.18;5.22;;;;;;;25.48;50.37;101289.78;5073353;28;20461;-60
2022/06/03 01:32:28;;;;;;;7.38;5.15;;;;;;;25.52;50.11;101280.91;5046453;28;20904;-60
2022/06/03 01:35:24;;;;;;;7.15;5.07;;;;;;;25.52;50.18;101283.59;5048421;28;20413;-60
2022/06/03 01:37:55;;;;;;;6.35;4.72;;;;;;;25.45;50.16;101283.00;5054421;28;20935;-60
2022/06/03 01:40:50;;;;;;;8.53;4.87;;;;;;;25.42;50.29;101291.63;5064908;28;20412;-60
2022/06/03 01:43:43;;;;;;;7.40;5.13;;;;;;;25.40;50.38;101279.41;5051251;28;20409;-60
2022/06/03 01:46:27;;;;;;;7.72;5.45;;;;;;;25.34;50.38;101283.97;5056828;28;20412;-60
2022/06/03 01:49:12;;;;;;;8.77;5.32;;;;;;;25.29;50.54;101287.44;5066275;28;20529;-60
2022/06/03 01:51:59;;;;;;;6.50;5.38;;;;;;;25.25;50.61;101289.03;5066397;28;20495;-60
2022/06/03 01:55:10;;;;;;;8.05;5.20;;;;;;;25.26;50.76;101287.13;5066033;28;20841;-60
2022/06/03 01:58:19;;;;;;;8.50;5.05;;;;;;;25.21;50.81;101297.88;5106543;27;20410;-60
2022/06/03 02:03:21;;;;;;;6.93;5.05;;;;;;;25.18;51.08;101293.81;5111671;27;20406;-60
2022/06/03 02:06:35;;;;;;;7.47;5.15;;;;;;;25.14;51.13;101298.91;5086549;28;20421;-60
2022/06/03 02:09:32;;;;;;;7.97;5.40;;;;;;;25.13;51.13;101304.59;5086618;28;20406;-60
2022/06/03 02:12:13;;;;;;;7.45;5.00;;;;;;;25.09;51.31;101301.56;5086474;28;20417;-60
2022/06/03 02:15:11;;;;;;;9.77;5.45;;;;;;;25.11;51.33;101306.75;5086637;28;20418;-60
2022/06/03 02:18:01;;;;;;;6.78;5.03;;;;;;;24.97;51.73;101309.00;5086413;28;20416;-60
2022/06/03 02:20:58;;;;;;;8.40;5.25;;;;;;;24.93;51.96;101307.88;5075100;28;20480;-60
2022/06/03 02:23:53;;;;;;;8.88;5.55;;;;;;;24.90;51.96;101306.50;5086064;28;20406;-60
2022/06/03 02:26:44;;;;;;;6.63;5.22;;;;;;;24.89;51.97;101310.25;5086271;28;21260;-60
2022/06/03 02:32:42;;;;;;;9.07;5.40;;;;;;;24.88;51.77;101307.81;5074619;28;20616;-60
2022/06/03 02:35:25;;;;;;;7.10;5.35;;;;;;;24.88;51.97;101313.22;5082775;28;20422;-60
2022/06/03 02:38:24;;;;;;;6.93;5.32;;;;;;;24.84;52.10;101309.38;5086350;28;20459;-60
2022/06/03 02:41:31;;;;;;;8.52;5.30;;;;;;;24.81;52.09;101321.53;5085915;28;20430;-60
2022/06/03 02:44:22;;;;;;;8.32;5.53;;;;;;;24.78;52.10;101322.06;5065465;28;20406;-60
2022/06/03 02:47:22;;;;;;;7.82;5.45;;;;;;;24.78;52.17;101320.16;5085836;28;20406;-60
2022/06/03 02:50:24;;;;;;;5.73;5.07;;;;;;;24.66;52.32;101322.16;5078267;28;20409;-60
2022/06/03 02:53:37;;;;;;;8.40;5.23;;;;;;;24.59;52.53;101313.38;5072045;28;20429;-60
2022/06/03 02:56:20;;;;;;;7.60;5.53;;;;;;;24.61;52.45;101311.22;5035377;28;20399;-60
2022/06/03 02:59:13;;;;;;;9.37;5.27;;;;;;;24.66;52.41;101311.31;5085102;28;20410;-60
2022/06/03 03:02:08;;;;;;;6.38;5.53;;;;;;;24.64;52.39;101318.88;5085188;28;20430;-60
2022/06/03 03:05:06;;;;;;;8.63;4.80;;;;;;;24.68;52.22;101306.44;5084421;28;20476;-60
2022/06/03 03:08:00;;;;;;;8.00;5.25;;;;;;;24.78;51.94;101313.94;5066633;28;20501;-60
2022/06/03 03:10:57;;;;;;;7.63;5.22;;;;;;;24.93;51.56;101314.09;5085011;28;20425;-60
2022/06/03 03:13:59;;;;;;;8.85;6.35;;;;;;;25.04;51.15;101327.81;5073961;28;20418;-60
2022/06/03 03:16:45;;;;;;;7.78;5.50;;;;;;;25.02;51.30;101319.09;5067828;28;20909;-60
2022/06/03 03:19:51;;;;;;;6.00;4.97;;;;;;;25.08;51.09;101318.91;5071383;28;20421;-60
2022/06/03 03:22:36;;;;;;;11.90;5.20;;;;;;;25.22;50.92;101329.38;5061351;28;20457;-60
2022/06/03 03:25:36;;;;;;;11.70;5.30;;;;;;;25.32;50.65;101326.84;5071206;28;20430;-60
2022/06/03 03:28:29;;;;;;;8.25;5.35;;;;;;;25.43;50.32;101339.44;5066537;28;20912;-60
2022/06/03 03:31:15;;;;;;;8.90;5.35;;;;;;;25.51;50.10;101330.81;5068478;28;20411;-60
2022/06/03 03:34:10;;;;;;;8.93;5.10;;;;;;;25.62;50.16;101336.38;5071029;28;20411;-60
2022/06/03 03:37:14;;;;;;;10.95;5.47;;;;;;;25.73;49.84;101328.09;5070294;28;20429;-60
2022/06/03 03:40:14;;;;;;;9.03;5.33;;;;;;;25.87;49.41;101333.91;5070337;28;20924;-60
2022/06/03 03:43:07;;;;;;;8.93;4.95;;;;;;;25.96;49.03;101337.00;5055314;28;20434;-60
2022/06/03 03:46:02;;;;;;;9.45;5.05;;;;;;;26.10;49.07;101348.28;5070060;28;20415;-61
2022/06/03 03:49:01;;;;;;;8.68;4.93;;;;;;;26.18;48.92;101349.69;5069566;28;20480;-60
2022/06/03 03:51:39;;;;;;;10.65;5.10;;;;;;;26.20;48.72;101352.97;5069289;28;20897;-60
2022/06/03 03:54:51;;;;;;;10.15;5.13;;;;;;;26.32;48.39;101350.88;5070205;28;20532;-60
2022/06/03 03:58:21;;;;;;;11.13;5.47;;;;;;;26.43;47.88;101349.06;5067993;28;20505;-60
2022/06/03 04:01:32;;;;;;;8.93;5.28;;;;;;;26.62;47.42;101355.75;4930396;29;20423;-60
2022/06/03 04:04:28;;;;;;;11.38;5.35;;;;;;;26.67;47.33;101365.84;4977012;28;20936;-60
2022/06/03 04:07:20;;;;;;;8.18;5.20;;;;;;;26.79;46.90;101369.16;5060154;28;20923;-61
2022/06/03 04:10:23;;;;;;;7.95;5.30;;;;;;;26.98;46.46;101371.47;5061109;28;20413;-60
2022/06/03 04:13:38;;;;;;;9.33;5.00;;;;;;;27.11;46.29;101373.69;5068655;28;20415;-60
2022/06/03 04:16:32;;;;;;;9.05;5.28;;;;;;;27.21;45.99;101378.38;5065944;28;20418;-60
2022/06/03 04:19:34;;;;;;;10.75;5.97;;;;;;;27.38;45.86;101384.47;5062342;28;20425;-61
2022/06/03 04:22:16;;;;;;;9.63;5.45;;;;;;;27.63;45.40;101386.44;5067472;28;20422;-61
2022/06/03 04:25:31;;;;;;;7.90;5.60;;;;;;;27.89;44.72;101389.22;5067618;28;20437;-61
2022/06/03 04:28:39;;;;;;;6.90;5.25;;;;;;;28.05;44.51;101390.09;5067671;28;20482;-60
2022/06/03 04:31:50;;;;;;;7.70;5.32;;;;;;;28.37;43.60;101391.75;5055518;28;20407;-60
2022/06/03 04:34:55;;;;;;;13.23;6.20;;;;;;;28.61;43.15;101394.75;5059410;28;20407;-61
2022/06/03 04:38:05;;;;;;;8.05;5.55;;;;;;;28.84;42.81;101396.06;5066036;28;20418;-61
2022/06/03 04:41:27;;;;;;;7.82;5.40;;;;;;;29.05;42.44;101390.56;5057584;28;20418;-61
2022/06/03 04:44:27;;;;;;;7.75;5.20;;;;;;;29.34;41.67;101398.94;4992293;28;20417;-60
2022/06/03 04:47:29;;;;;;;9.17;5.47;;;;;;;29.51;41.19;101401.31;5068472;28;20924;-60
2022/06/03 04:50:35;;;;;;;11.13;5.20;;;;;;;29.70;40.80;101402.31;5043284;28;20416;-60
2022/06/03 04:53:48;;;;;;;6.80;5.40;;;;;;;29.94;40.41;101409.84;5033041;28;20458;-60
2022/06/03 04:57:07;;;;;;;8.35;5.50;;;;;;;30.15;39.99;101409.69;5061070;28;20414;-60
2022/06/03 05:00:08;;;;;;;8.23;5.30;;;;;;;30.29;39.72;101406.03;5067396;28;20423;-60
2022/06/03 05:03:11;;;;;;;8.02;5.72;;;;;;;30.52;39.27;101411.84;5047840;28;20426;-60
2022/06/03 05:06:17;;;;;;;12.95;5.80;;;;;;;30.62;39.29;101411.78;5054289;28;20412;-60
2022/06/03 05:09:34;;;;;;;9.02;5.80;;;;;;;30.78;39.26;101417.91;5048414;28;20780;-60
2022/06/03 05:12:40;;;;;;;9.68;6.00;;;;;;;30.87;39.06;101423.56;5031681;28;20416;-60
2022/06/03 05:15:46;;;;;;;9.67;5.90;;;;;;;31.02;38.48;101426.16;5061582;28;20409;-60
2022/06/03 05:18:43;;;;;;;8.65;5.30;;;;;;;31.28;37.90;101436.00;5058082;28;20926;-60
2022/06/03 05:21:44;;;;;;;9.68;5.43;;;;;;;31.48;37.68;101419.34;5052246;28;20424;-62
2022/06/03 05:24:45;;;;;;;7.90;6.15;;;;;;;31.56;37.22;101424.16;5048984;28;20527;-62
2022/06/03 05:27:38;;;;;;;8.35;6.38;;;;;;;31.78;37.19;101422.75;5060744;28;21180;-60
2022/06/03 05:30:37;;;;;;;8.50;5.40;;;;;;;31.82;36.84;101424.63;5051335;28;20503;-60
2022/06/03 05:33:49;;;;;;;7.17;5.50;;;;;;;32.24;36.09;101429.53;5048166;28;20420;-60
2022/06/03 05:36:57;;;;;;;6.85;5.38;;;;;;;32.70;35.31;101428.75;5049826;28;20413;-59
2022/06/03 05:40:02;;;;;;;7.30;5.47;;;;;;;33.04;34.37;101422.88;5056216;28;20429;-60
2022/06/03 05:43:17;;;;;;;6.32;4.70;;;;;;;33.49;34.21;101425.00;5039892;28;20436;-60
2022/06/03 05:46:06;;;;;;;8.55;5.45;;;;;;;33.80;33.24;101416.91;5022045;28;20418;-60
2022/06/03 05:48:52;;;;;;;7.90;5.10;;;;;;;34.00;32.99;101420.31;5021031;28;20415;-60
2022/06/03 05:52:03;;;;;;;9.85;5.63;;;;;;;34.41;32.43;101411.03;5055646;28;20403;-60
2022/06/03 05:54:42;;;;;;;7.70;4.90;;;;;;;34.70;31.49;101415.28;5029587;28;20939;-60
2022/06/03 05:57:28;;;;;;;6.10;4.83;;;;;;;34.98;31.04;101418.63;5064130;28;20417;-60
2022/06/03 06:00:15;;;;;;;7.63;4.68;;;;;;;35.30;30.62;101420.22;5062670;28;20429;-60
2022/06/03 06:02:47;;;;;;;10.00;4.82;;;;;;;35.66;29.81;101418.31;5063894;28;20449;-60
2022/06/03 06:05:26;;;;;;;6.75;4.60;;;;;;;36.11;28.91;101416.03;5064250;28;20439;-60
2022/06/03 06:08:05;;;;;;;7.07;4.40;;;;;;;36.24;28.88;101408.75;5063861;28;20428;-60
2022/06/03 06:10:44;;;;;;;8.07;4.63;;;;;;;36.45;29.03;101405.28;5058349;28;20426;-60
2022/06/03 06:13:29;;;;;;;5.95;4.57;;;;;;;36.76;28.26;101398.72;5054364;28;20404;-60
2022/06/03 06:16:07;;;;;;;5.80;4.50;;;;;;;37.08;27.69;101405.53;5061790;28;20411;-60
2022/06/03 06:18:56;;;;;;;5.88;4.70;;;;;;;37.33;27.44;101416.78;5055827;28;20418;-59
2022/06/03 06:21:39;;;;;;;4.75;4.25;;;;;;;37.66;26.63;101409.41;5051829;28;20420;-60
2022/06/03 06:24:14;;;;;;;5.30;4.57;;;;;;;37.90;26.78;101412.63;5051554;28;20846;-59
2022/06/03 06:27:18;;;;;;;6.13;4.40;;;;;;;38.28;25.96;101409.66;5050863;28;20412;-60
2022/06/03 06:30:17;;;;;;;5.43;4.35;;;;;;;38.69;25.52;101407.09;5050503;28;20789;-60
2022/06/03 06:33:27;;;;;;;7.22;4.63;;;;;;;38.77;25.59;101406.16;5055729;28;20418;-60
2022/06/03 06:36:38;;;;;;;5.00;4.40;;;;;;;39.25;24.57;101406.50;5054893;28;20416;-59
2022/06/03 06:39:15;;;;;;;5.57;4.28;;;;;;;39.55;24.60;101398.72;5050990;28;20412;-60
2022/06/03 06:41:51;;;;;;;4.75;4.20;;;;;;;39.40;24.52;101411.34;5054421;28;20503;-60
2022/06/03 06:44:34;;;;;;;6.22;4.60;;;;;;;39.91;23.71;101405.31;5049728;28;20423;-59
2022/06/03 06:47:11;;;;;;;6.43;4.70;;;;;;;40.23;23.81;101400.63;5064502;28;20411;-60
2022/06/03 06:49:45;;;;;;;6.43;4.00;;;;;;;40.16;23.35;101405.16;5052760;28;20412;-60
2022/06/03 06:52:35;;;;;;;5.68;4.22;;;;;;;40.55;22.83;101414.53;5070145;28;20433;-60
2022/06/03 06:55:11;;;;;;;6.60;4.20;;;;;;;40.52;23.22;101401.38;5067907;28;20932;-60
2022/06/03 06:57:44;;;;;;;5.10;4.20;;;;;;;40.01;23.98;101402.00;5065245;28;20434;-61
2022/06/03 07:00:19;;;;;;;5.63;4.60;;;;;;;39.16;24.73;101414.94;5064436;28;20912;-60
2022/06/03 07:02:52;;;;;;;7.03;4.13;;;;;;;38.92;24.80;101408.25;5067094;28;20433;-60
2022/06/03 07:05:24;;;;;;;6.07;4.35;;;;;;;38.39;25.05;101405.31;5068146;28;20420;-60
2022/06/03 07:07:57;;;;;;;5.00;4.50;;;;;;;38.14;25.79;101403.59;5064138;28;20413;-60
2022/06/03 07:10:27;;;;;;;5.88;4.40;;;;;;;37.66;26.68;101411.38;5066183;28;20797;-60
2022/06/03 07:13:03;;;;;;;6.70;4.40;;;;;;;37.24;27.45;101414.91;5065865;28;20419;-60
2022/06/03 07:15:45;;;;;;;4.90;4.40;;;;;;;36.81;27.41;101409.56;5066177;28;20474;-60
2022/06/03 07:21:14;;;;;;;5.32;4.40;;;;;;;35.59;28.92;101414.09;5065454;28;20397;-59
2022/06/03 07:23:48;;;;;;;4.97;4.43;;;;;;;35.19;29.68;101418.88;5060866;28;20430;-59
2022/06/03 07:26:23;;;;;;;6.22;4.90;;;;;;;34.79;30.32;101422.47;5062181;28;20421;-59
2022/06/03 07:28:55;;;;;;;6.68;4.60;;;;;;;34.70;30.73;101416.09;5067709;28;20442;-59
2022/06/03 07:31:29;;;;;;;5.88;4.45;;;;;;;34.61;30.98;101410.53;5065756;28;20912;-59
2022/06/03 07:34:01;;;;;;;6.88;4.68;;;;;;;34.01;30.88;101410.91;5071254;28;20426;-59
2022/06/03 07:36:36;;;;;;;15.33;7.37;;;;;;;34.24;31.39;101414.53;5064421;28;20418;-59
2022/06/03 07:39:19;;;;;;;16.73;7.73;;;;;;;34.35;31.27;101417.81;5071198;28;20931;-59
2022/06/03 07:41:52;;;;;;;5.90;5.00;;;;;;;34.30;31.13;101420.69;5064114;28;20808;-59
2022/06/03 07:44:25;;;;;;;5.10;4.40;;;;;;;33.59;31.42;101423.97;5071138;28;20430;-59
2022/06/03 07:47:00;;;;;;;5.90;4.00;;;;;;;32.27;33.88;101428.91;5063696;28;20415;-59
2022/06/03 07:49:30;;;;;;;6.00;4.85;;;;;;;32.48;33.93;101423.88;5070956;28;20480;-59
2022/06/03 07:52:03;;;;;;;5.05;4.40;;;;;;;32.30;33.98;101420.88;5070727;28;20418;-59
2022/06/03 07:54:34;;;;;;;9.35;4.68;;;;;;;32.03;34.47;101424.31;5070530;28;20415;-59
2022/06/03 07:57:03;;;;;;;6.57;4.80;;;;;;;32.04;34.97;101425.19;5070621;28;20415;-59
2022/06/03 07:59:33;;;;;;;7.55;4.30;;;;;;;31.53;36.01;101422.03;5070728;28;20866;-59
2022/06/03 08:02:05;;;;;;;6.95;4.55;;;;;;;31.97;35.43;101428.25;5070566;28;21014;-59
2022/06/03 08:04:34;;;;;;;7.75;4.55;;;;;;;31.66;35.75;101436.94;5070971;28;20411;-60
2022/06/03 08:12:35;;;;;;;7.03;4.22;;;;;;;31.04;37.09;101443.13;5054732;28;20427;-59
2022/06/03 08:15:15;;;;;;;8.70;4.68;;;;;;;30.94;37.29;101458.84;5056900;28;20411;-59
2022/06/03 08:17:45;;;;;;;4.85;4.40;;;;;;;30.57;37.76;101455.59;5071056;28;20407;-59
2022/06/03 08:20:14;;;;;;;8.15;4.72;;;;;;;30.24;38.78;101454.47;5057699;28;20414;-59
2022/06/03 08:22:41;;;;;;;8.30;4.82;;;;;;;30.63;38.32;101462.66;5070899;28;20441;-59
2022/06/03 08:25:27;;;;;;;7.47;4.68;;;;;;;30.80;38.08;101462.22;5070681;28;20411;-59
2022/06/03 08:27:57;;;;;;;6.00;4.50;;;;;;;30.69;37.65;101464.25;5058279;28;20421;-59
2022/06/03 08:30:28;;;;;;;8.10;5.93;;;;;;;30.36;38.49;101459.59;5070152;28;20770;-59
2022/06/03 08:33:00;;;;;;;7.87;5.40;;;;;;;30.30;39.50;101465.06;5070470;28;20410;-59
2022/06/03 08:35:32;;;;;;;6.22;5.28;;;;;;;30.29;40.23;101462.66;5057118;28;20415;-59
2022/06/03 08:38:03;;;;;;;5.10;4.60;;;;;;;30.52;39.03;101461.09;5070419;28;20422;-59
2022/06/03 08:40:39;;;;;;;7.25;4.95;;;;;;;30.16;40.03;101468.75;5070239;28;20942;-59
2022/06/03 08:43:13;;;;;;;7.20;4.83;;;;;;;30.10;40.55;101466.03;5070144;28;20427;-59
2022/06/03 08:45:51;;;;;;;5.60;5.00;;;;;;;30.03;40.31;101476.47;5056672;28;20472;-59
2022/06/03 08:48:24;;;;;;;6.82;5.13;;;;;;;30.03;40.40;101472.94;5069959;28;20413;-59
2022/06/03 08:50:57;;;;;;;7.50;5.53;;;;;;;30.48;39.78;101481.94;5057199;28;20407;-59
2022/06/03 08:53:31;;;;;;;6.85;5.00;;;;;;;30.51;39.03;101486.03;5069718;28;20415;-59
2022/06/03 08:56:02;;;;;;;6.53;4.85;;;;;;;30.50;38.98;101477.00;5069879;28;20418;-59
2022/06/03 08:58:39;;;;;;;8.07;4.60;;;;;;;30.39;38.76;101478.19;5069959;28;20492;-59
2022/06/03 09:01:14;;;;;;;7.10;4.55;;;;;;;30.39;38.46;101479.00;5062550;28;20412;-59
2022/06/03 09:03:51;;;;;;;6.15;4.47;;;;;;;30.44;37.94;101487.16;5063860;28;20435;-59
2022/06/03 09:06:31;;;;;;;5.82;3.80;;;;;;;29.69;37.81;101490.03;5057974;28;20418;-59
2022/06/03 09:09:03;;;;;;;5.20;3.90;;;;;;;29.82;37.95;101489.47;5055607;28;20419;-59
2022/06/03 09:11:37;;;;;;;4.43;4.03;;;;;;;29.90;37.86;101485.31;5064885;28;20411;-59
2022/06/03 09:14:08;;;;;;;5.85;3.80;;;;;;;30.07;37.59;101484.94;5069561;28;20922;-59
2022/06/03 09:16:36;;;;;;;6.28;4.32;;;;;;;30.27;37.95;101492.19;5069383;28;20426;-59
2022/06/03 09:19:12;;;;;;;5.65;4.38;;;;;;;30.40;38.10;101490.78;5069528;28;20417;-59
2022/06/03 09:21:43;;;;;;;5.35;4.15;;;;;;;30.29;38.23;101487.25;5069351;28;20433;-59
2022/06/03 09:24:17;;;;;;;5.90;4.40;;;;;;;30.23;38.20;101491.13;5069415;28;20470;-59
2022/06/03 09:26:47;;;;;;;5.45;4.20;;;;;;;30.18;38.76;101491.16;5068212;28;20914;-59
2022/06/03 09:29:17;;;;;;;6.18;4.30;;;;;;;30.28;37.84;101488.34;5069434;28;20419;-59
2022/06/03 09:31:49;;;;;;;5.82;4.05;;;;;;;30.42;37.39;101483.09;5069363;28;20421;-59
2022/06/03 09:34:22;;;;;;;5.33;4.40;;;;;;;30.41;37.82;101485.00;5069709;28;20418;-59
2022/06/03 09:36:49;;;;;;;7.13;5.10;;;;;;;30.54;37.94;101483.56;5069056;28;20443;-59
2022/06/03 09:39:19;;;;;;;6.28;4.40;;;;;;;30.51;38.08;101483.31;5069304;28;20410;-59
2022/06/03 09:41:53;;;;;;;7.50;4.40;;;;;;;30.49;38.50;101478.13;5068909;28;20418;-59
2022/06/03 09:44:23;;;;;;;6.00;4.50;;;;;;;30.47;38.58;101481.13;5069476;28;20430;-59
2022/06/03 09:46:57;;;;;;;6.07;4.30;;;;;;;30.22;39.13;101486.78;5069283;28;20411;-59
2022/06/03 09:49:29;;;;;;;6.70;4.50;;;;;;;30.10;39.60;101485.19;5069403;28;20411;-59
2022/06/03 09:51:59;;;;;;;5.75;4.35;;;;;;;30.18;39.18;101477.47;5069196;28;20407;-59
2022/06/03 09:54:30;;;;;;;7.45;4.70;;;;;;;30.37;38.75;101485.88;5069137;28;20928;-59
2022/06/03 09:57:05;;;;;;;6.87;4.63;;;;;;;30.51;38.80;101488.78;5069008;28;20419;-59
2022/06/03 09:59:35;;;;;;;4.70;4.30;;;;;;;30.23;39.16;101488.38;5068646;28;20415;-59
2022/06/03 10:02:03;;;;;;;6.55;3.85;;;;;;;30.38;38.47;101493.78;5069082;28;20423;-59
2022/06/03 10:04:32;;;;;;;6.18;4.25;;;;;;;30.25;38.74;101483.44;5069368;28;20453;-59
2022/06/03 10:07:02;;;;;;;5.38;4.20;;;;;;;30.23;38.81;101494.69;5069319;28;20406;-59
2022/06/03 10:17:53;;;;;;;7.32;4.05;;;;;;;30.28;39.24;101494.63;5068746;28;20414;-58
2022/06/03 10:20:22;;;;;;;6.20;3.90;;;;;;;30.31;38.71;101496.00;5068836;28;20443;-58
2022/06/03 10:22:49;;;;;;;5.30;3.77;;;;;;;30.23;39.14;101493.84;5069353;28;20926;-58
2022/06/03 10:25:17;;;;;;;6.50;3.58;;;;;;;30.37;38.43;101488.59;5072844;28;20411;-59
2022/06/03 10:27:46;;;;;;;4.20;3.67;;;;;;;30.24;39.00;101477.16;5072895;28;20421;-59
2022/06/03 10:30:14;;;;;;;5.60;3.80;;;;;;;30.36;38.75;101478.75;5072436;28;20827;-59
2022/06/03 10:32:41;;;;;;;5.88;3.75;;;;;;;30.48;38.63;101477.28;5072950;28;20410;-59
2022/06/03 10:35:13;;;;;;;4.40;3.50;;;;;;;30.47;38.29;101483.06;5072326;28;20419;-59
2022/06/03 10:37:50;;;;;;;5.20;3.65;;;;;;;30.56;38.77;101477.75;5072510;28;20986;-60
2022/06/03 10:40:17;;;;;;;6.90;3.67;;;;;;;30.17;38.30;101475.88;5072196;28;20415;-59
2022/06/03 10:42:49;;;;;;;6.13;3.85;;;;;;;30.26;38.84;101480.44;5073028;28;20421;-59
2022/06/03 10:45:16;;;;;;;5.60;3.53;;;;;;;30.25;39.04;101461.56;5072437;28;20434;-60
2022/06/03 10:47:45;;;;;;;6.27;3.70;;;;;;;30.40;38.59;101460.69;5072754;28;20418;-59
2022/06/03 10:50:25;;;;;;;4.40;3.65;;;;;;;30.37;38.90;101462.06;5072094;28;20471;-60
2022/06/03 11:01:33;;;;;;;5.30;3.70;;;;;;;30.52;38.18;101460.31;5069985;28;20464;-60
2022/06/03 11:04:01;;;;;;;6.93;3.40;;;;;;;30.54;38.58;101452.63;5069473;28;20434;-60
2022/06/03 11:06:34;;;;;;;6.28;3.55;;;;;;;30.60;38.42;101455.03;5070887;28;20414;-60
2022/06/03 11:09:06;;;;;;;5.97;3.90;;;;;;;30.52;38.71;101455.63;5070203;28;20762;-60
2022/06/03 11:11:36;;;;;;;5.43;3.83;;;;;;;30.65;38.85;101454.19;5063451;28;20880;-60
2022/06/03 11:14:23;;;;;;;4.72;3.47;;;;;;;30.77;38.86;101440.09;5069028;28;20415;-60
2022/06/03 11:16:57;;;;;;;6.20;3.50;;;;;;;30.47;38.37;101442.03;5060633;28;20414;-60
2022/06/03 11:19:25;;;;;;;5.38;3.67;;;;;;;30.56;38.28;101440.31;5066828;28;20419;-58
2022/06/03 11:22:13;;;;;;;5.05;3.42;;;;;;;30.43;37.92;101439.03;5062340;28;20437;-60
2022/06/03 11:24:42;;;;;;;6.93;3.53;;;;;;;30.56;38.24;101436.72;5060767;28;20804;-60
2022/06/03 11:27:13;;;;;;;6.30;3.55;;;;;;;30.52;38.74;101435.69;5064013;28;20411;-60
2022/06/03 11:29:45;;;;;;;4.17;3.50;;;;;;;30.85;38.39;101428.53;5063109;28;20422;-60
2022/06/03 11:32:14;;;;;;;4.97;3.90;;;;;;;30.67;38.63;101436.34;5063514;28;20424;-60
2022/06/03 11:34:47;;;;;;;4.95;3.85;;;;;;;30.81;38.41;101417.34;5061505;28;20515;-60
2022/06/03 11:37:18;;;;;;;7.18;3.75;;;;;;;30.88;38.15;101416.97;5068061;28;20424;-60
2022/06/03 11:39:53;;;;;;;6.75;4.05;;;;;;;30.73;38.38;101417.16;5065803;28;20980;-60
2022/06/03 11:42:25;;;;;;;7.33;3.97;;;;;;;30.93;37.97;101407.94;5059129;28;20441;-60
2022/06/03 11:44:59;;;;;;;6.40;3.70;;;;;;;30.87;37.42;101407.16;5061903;28;20433;-60
2022/06/03 11:47:32;;;;;;;6.38;3.40;;;;;;;30.94;37.18;101399.44;5060456;28;20409;-60
2022/06/03 11:49:59;;;;;;;4.90;3.55;;;;;;;30.58;37.65;101407.19;5060730;28;20421;-59
2022/06/03 11:52:27;;;;;;;4.50;3.53;;;;;;;30.79;38.36;101400.41;5057847;28;20411;-60
2022/06/03 11:54:55;;;;;;;4.60;3.70;;;;;;;30.93;37.46;101405.19;5058481;28;20407;-60
2022/06/03 11:57:23;;;;;;;4.20;3.50;;;;;;;30.49;38.58;101404.25;5059396;28;20482;-59
2022/06/03 11:59:55;;;;;;;4.55;3.60;;;;;;;30.42;38.73;101406.50;5067200;28;20506;-60
2022/06/03 12:02:34;;;;;;;4.43;3.90;;;;;;;30.58;39.27;101399.78;5057197;28;20434;-60
2022/06/03 12:05:06;;;;;;;5.35;3.60;;;;;;;30.80;38.63;101415.69;5066354;28;20433;-59
2022/06/03 12:07:44;;;;;;;4.85;3.70;;;;;;;30.75;39.04;101415.75;5064735;28;20414;-60
2022/06/03 12:10:19;;;;;;;4.53;3.60;;;;;;;30.73;37.81;101398.00;5064362;28;20796;-60
2022/06/03 12:15:47;;;;;;;5.03;3.67;;;;;;;30.60;37.33;101400.31;5068866;28;20418;-60
2022/06/03 12:18:31;;;;;;;4.75;3.60;;;;;;;30.63;37.76;101399.72;5065525;28;20419;-60
2022/06/03 12:21:00;;;;;;;6.45;4.32;;;;;;;30.88;37.65;101401.38;5050482;28;20406;-60
2022/06/03 12:23:55;;;;;;;5.47;4.22;;;;;;;30.94;37.59;101412.31;5057850;28;20415;-60
2022/06/03 12:26:27;;;;;;;5.20;3.97;;;;;;;30.82;38.19;101408.00;5044228;28;20416;-60
2022/06/03 12:28:58;;;;;;;6.03;3.80;;;;;;;31.05;38.19;101413.81;5060280;28;20411;-60
2022/06/03 12:31:41;;;;;;;6.43;4.07;;;;;;;30.96;38.16;101410.09;5058512;28;20415;-60
2022/06/03 12:34:20;;;;;;;9.02;4.20;;;;;;;31.14;38.44;101397.56;5062844;28;20418;-60
2022/06/03 12:37:00;;;;;;;7.35;4.20;;;;;;;31.27;37.96;101399.59;5061083;28;20427;-60
2022/06/03 12:39:29;;;;;;;7.50;4.32;;;;;;;31.07;38.18;101406.13;5057210;28;20419;-60
2022/06/03 12:42:02;;;;;;;7.43;4.32;;;;;;;31.00;38.54;101401.00;5058866;28;20415;-60
2022/06/03 12:44:39;;;;;;;7.00;4.30;;;;;;;31.04;38.87;101393.00;5058090;28;20439;-60
2022/06/03 12:47:50;;;;;;;5.35;4.22;;;;;;;31.14;38.83;101406.59;5054575;28;20431;-60
2022/06/03 12:50:31;;;;;;;7.20;4.27;;;;;;;31.28;38.78;101395.75;5063550;28;20417;-59
2022/06/03 12:53:19;;;;;;;6.22;4.10;;;;;;;31.28;38.75;101392.19;5059925;28;20512;-59
2022/06/03 12:55:54;;;;;;;6.07;4.40;;;;;;;31.33;38.50;101397.59;5057137;28;20883;-59
2022/06/03 12:58:45;;;;;;;7.85;4.55;;;;;;;31.24;38.13;101390.03;5053030;28;20427;-60
2022/06/03 13:01:12;;;;;;;5.53;3.95;;;;;;;31.19;38.03;101392.03;5057863;28;20541;-59
2022/06/03 13:03:42;;;;;;;5.88;4.00;;;;;;;31.54;37.13;101379.00;5062950;28;20418;-60
2022/06/03 13:06:10;;;;;;;7.55;4.45;;;;;;;31.49;38.33;101388.09;5061330;28;20433;-59
2022/06/03 13:11:42;;;;;;;4.88;4.05;;;;;;;31.48;37.94;101385.63;5058796;28;20491;-59
2022/06/03 13:14:26;;;;;;;6.90;4.50;;;;;;;31.41;37.91;101375.84;5056161;28;20452;-60
2022/06/03 13:16:53;;;;;;;8.25;4.68;;;;;;;31.42;37.91;101380.22;5062828;28;20428;-59
2022/06/03 13:19:58;;;;;;;5.05;3.97;;;;;;;31.50;38.41;101365.06;5056007;28;20421;-60
2022/06/03 13:22:43;;;;;;;5.65;4.30;;;;;;;31.57;37.84;101370.19;5055920;28;20818;-59